sensor_id;sensor_type;location;lat;lon;timestamp;P1;durP1;ratioP1;P2;durP2;ratioP2
11453;SDS011;5783;55.174;61.310;2022-12-18T00:01:57;7.37;;;6.10;;
11453;SDS011;5783;55.174;61.310;2022-12-18T00:04:27;7.23;;;5.93;;
11453;SDS011;5783;55.174;61.310;2022-12-18T00:06:56;7.03;;;5.40;;
11453;SDS011;5783;55.174;61.310;2022-12-18T00:09:25;6.83;;;5.53;;
11453;SDS011;5783;55.174;61.310;2022-12-18T00:11:54;7.07;;;5.57;;
11453;SDS011;5783;55.174;61.310;2022-12-18T00:14:24;6.27;;;5.23;;
11453;SDS011;5783;55.174;61.310;2022-12-18T00:16:53;7.33;;;5.53;;
11453;SDS011;5783;55.174;61.310;2022-12-18T00:19:24;7.03;;;5.40;;
11453;SDS011;5783;55.174;61.310;2022-12-18T00:21:53;6.53;;;5.57;;
11453;SDS011;5783;55.174;61.310;2022-12-18T00:24:23;7.03;;;5.47;;
11453;SDS011;5783;55.174;61.310;2022-12-18T00:26:53;7.07;;;5.60;;
11453;SDS011;5783;55.174;61.310;2022-12-18T00:29:22;7.47;;;5.63;;
11453;SDS011;5783;55.174;61.310;2022-12-18T00:31:51;5.67;;;4.90;;
11453;SDS011;5783;55.174;61.310;2022-12-18T00:34:20;6.70;;;5.40;;
11453;SDS011;5783;55.174;61.310;2022-12-18T00:36:49;5.70;;;5.03;;
11453;SDS011;5783;55.174;61.310;2022-12-18T00:39:18;7.30;;;5.50;;
11453;SDS011;5783;55.174;61.310;2022-12-18T00:41:47;7.30;;;5.50;;
11453;SDS011;5783;55.174;61.310;2022-12-18T00:44:36;8.63;;;5.30;;
11453;SDS011;5783;55.174;61.310;2022-12-18T00:47:05;7.57;;;5.83;;
11453;SDS011;5783;55.174;61.310;2022-12-18T00:49:34;7.20;;;5.33;;
11453;SDS011;5783;55.174;61.310;2022-12-18T00:52:03;6.97;;;5.23;;
11453;SDS011;5783;55.174;61.310;2022-12-18T00:54:33;7.37;;;5.37;;
11453;SDS011;5783;55.174;61.310;2022-12-18T00:57:02;7.27;;;5.20;;
11453;SDS011;5783;55.174;61.310;2022-12-18T00:59:31;6.77;;;5.70;;
11453;SDS011;5783;55.174;61.310;2022-12-18T01:02:00;6.10;;;5.27;;
11453;SDS011;5783;55.174;61.310;2022-12-18T01:04:31;8.27;;;5.57;;
11453;SDS011;5783;55.174;61.310;2022-12-18T01:07:00;6.70;;;5.10;;
11453;SDS011;5783;55.174;61.310;2022-12-18T01:09:29;6.37;;;5.10;;
11453;SDS011;5783;55.174;61.310;2022-12-18T01:11:58;6.13;;;5.10;;
11453;SDS011;5783;55.174;61.310;2022-12-18T01:14:27;6.20;;;5.00;;
11453;SDS011;5783;55.174;61.310;2022-12-18T01:16:56;6.50;;;5.30;;
11453;SDS011;5783;55.174;61.310;2022-12-18T01:19:27;6.00;;;5.33;;
11453;SDS011;5783;55.174;61.310;2022-12-18T01:21:56;5.57;;;4.90;;
11453;SDS011;5783;55.174;61.310;2022-12-18T01:24:25;6.73;;;5.53;;
11453;SDS011;5783;55.174;61.310;2022-12-18T01:26:55;6.03;;;4.90;;
11453;SDS011;5783;55.174;61.310;2022-12-18T01:29:24;6.27;;;5.20;;
11453;SDS011;5783;55.174;61.310;2022-12-18T01:31:54;6.57;;;5.10;;
11453;SDS011;5783;55.174;61.310;2022-12-18T01:34:24;5.83;;;5.13;;
11453;SDS011;5783;55.174;61.310;2022-12-18T01:36:53;6.00;;;5.13;;
11453;SDS011;5783;55.174;61.310;2022-12-18T01:39:22;6.00;;;5.20;;
11453;SDS011;5783;55.174;61.310;2022-12-18T01:41:51;5.73;;;5.00;;
11453;SDS011;5783;55.174;61.310;2022-12-18T01:53:26;8.57;;;5.70;;
11453;SDS011;5783;55.174;61.310;2022-12-18T01:55:56;6.00;;;5.30;;
11453;SDS011;5783;55.174;61.310;2022-12-18T02:01:34;5.47;;;4.90;;
11453;SDS011;5783;55.174;61.310;2022-12-18T02:06:59;5.93;;;5.13;;
11453;SDS011;5783;55.174;61.310;2022-12-18T02:09:29;6.03;;;5.13;;
11453;SDS011;5783;55.174;61.310;2022-12-18T02:27:22;5.77;;;4.93;;
11453;SDS011;5783;55.174;61.310;2022-12-18T02:29:52;6.40;;;5.40;;
11453;SDS011;5783;55.174;61.310;2022-12-18T02:34:56;6.83;;;5.70;;
11453;SDS011;5783;55.174;61.310;2022-12-18T02:37:27;6.30;;;5.27;;
11453;SDS011;5783;55.174;61.310;2022-12-18T02:39:58;7.40;;;5.63;;
11453;SDS011;5783;55.174;61.310;2022-12-18T02:42:29;5.70;;;5.10;;
11453;SDS011;5783;55.174;61.310;2022-12-18T02:45:00;7.30;;;5.47;;
11453;SDS011;5783;55.174;61.310;2022-12-18T02:47:31;6.60;;;5.00;;
11453;SDS011;5783;55.174;61.310;2022-12-18T02:56:20;6.77;;;5.60;;
11453;SDS011;5783;55.174;61.310;2022-12-18T03:07:42;6.60;;;5.50;;
11453;SDS011;5783;55.174;61.310;2022-12-18T03:10:31;6.23;;;5.27;;
11453;SDS011;5783;55.174;61.310;2022-12-18T03:16:11;6.73;;;5.13;;
11453;SDS011;5783;55.174;61.310;2022-12-18T03:18:43;6.93;;;5.70;;
11453;SDS011;5783;55.174;61.310;2022-12-18T03:21:14;7.73;;;5.70;;
11453;SDS011;5783;55.174;61.310;2022-12-18T03:23:48;7.10;;;5.60;;
11453;SDS011;5783;55.174;61.310;2022-12-18T03:26:19;6.27;;;5.10;;
11453;SDS011;5783;55.174;61.310;2022-12-18T03:28:51;6.83;;;5.40;;
11453;SDS011;5783;55.174;61.310;2022-12-18T03:31:40;6.77;;;5.23;;
11453;SDS011;5783;55.174;61.310;2022-12-18T03:34:13;7.10;;;5.20;;
11453;SDS011;5783;55.174;61.310;2022-12-18T03:36:45;7.70;;;5.70;;
11453;SDS011;5783;55.174;61.310;2022-12-18T03:39:14;6.17;;;5.17;;
11453;SDS011;5783;55.174;61.310;2022-12-18T03:41:44;6.13;;;5.50;;
11453;SDS011;5783;55.174;61.310;2022-12-18T03:50:16;6.27;;;5.50;;
11453;SDS011;5783;55.174;61.310;2022-12-18T03:56:12;6.47;;;5.40;;
11453;SDS011;5783;55.174;61.310;2022-12-18T03:58:44;6.77;;;5.27;;
11453;SDS011;5783;55.174;61.310;2022-12-18T04:01:16;6.30;;;5.30;;
11453;SDS011;5783;55.174;61.310;2022-12-18T04:03:47;7.73;;;5.40;;
11453;SDS011;5783;55.174;61.310;2022-12-18T04:06:18;6.20;;;5.33;;
11453;SDS011;5783;55.174;61.310;2022-12-18T04:08:48;5.97;;;5.07;;
11453;SDS011;5783;55.174;61.310;2022-12-18T04:11:18;6.10;;;5.50;;
11453;SDS011;5783;55.174;61.310;2022-12-18T04:13:47;7.60;;;5.60;;
11453;SDS011;5783;55.174;61.310;2022-12-18T04:16:16;7.10;;;5.20;;
11453;SDS011;5783;55.174;61.310;2022-12-18T04:18:46;7.20;;;5.63;;
11453;SDS011;5783;55.174;61.310;2022-12-18T04:21:15;6.83;;;5.40;;
11453;SDS011;5783;55.174;61.310;2022-12-18T04:23:44;7.77;;;5.20;;
11453;SDS011;5783;55.174;61.310;2022-12-18T04:26:13;7.43;;;5.90;;
11453;SDS011;5783;55.174;61.310;2022-12-18T04:28:42;6.33;;;5.53;;
11453;SDS011;5783;55.174;61.310;2022-12-18T04:31:11;6.83;;;5.33;;
11453;SDS011;5783;55.174;61.310;2022-12-18T04:33:41;7.87;;;6.20;;
11453;SDS011;5783;55.174;61.310;2022-12-18T04:36:10;7.97;;;5.67;;
11453;SDS011;5783;55.174;61.310;2022-12-18T04:38:39;7.63;;;5.67;;
11453;SDS011;5783;55.174;61.310;2022-12-18T04:41:09;7.07;;;6.10;;
11453;SDS011;5783;55.174;61.310;2022-12-18T04:43:38;10.93;;;6.90;;
11453;SDS011;5783;55.174;61.310;2022-12-18T04:46:07;7.40;;;6.00;;
11453;SDS011;5783;55.174;61.310;2022-12-18T04:48:37;10.03;;;7.00;;
11453;SDS011;5783;55.174;61.310;2022-12-18T04:51:06;8.47;;;6.10;;
11453;SDS011;5783;55.174;61.310;2022-12-18T04:53:35;9.40;;;6.37;;
11453;SDS011;5783;55.174;61.310;2022-12-18T04:58:53;7.87;;;6.20;;
11453;SDS011;5783;55.174;61.310;2022-12-18T05:01:22;8.20;;;6.27;;
11453;SDS011;5783;55.174;61.310;2022-12-18T05:03:51;12.87;;;7.37;;
11453;SDS011;5783;55.174;61.310;2022-12-18T05:06:20;12.27;;;7.07;;
11453;SDS011;5783;55.174;61.310;2022-12-18T05:08:50;9.43;;;7.57;;
11453;SDS011;5783;55.174;61.310;2022-12-18T05:11:19;8.50;;;6.70;;
11453;SDS011;5783;55.174;61.310;2022-12-18T05:13:48;9.50;;;7.00;;
11453;SDS011;5783;55.174;61.310;2022-12-18T05:16:17;9.33;;;6.70;;
11453;SDS011;5783;55.174;61.310;2022-12-18T05:18:46;12.03;;;7.03;;
11453;SDS011;5783;55.174;61.310;2022-12-18T05:21:15;10.20;;;6.90;;
11453;SDS011;5783;55.174;61.310;2022-12-18T05:23:44;8.77;;;7.20;;
11453;SDS011;5783;55.174;61.310;2022-12-18T05:26:14;9.60;;;7.00;;
11453;SDS011;5783;55.174;61.310;2022-12-18T05:28:45;11.17;;;7.43;;
11453;SDS011;5783;55.174;61.310;2022-12-18T05:31:14;9.17;;;6.77;;
11453;SDS011;5783;55.174;61.310;2022-12-18T05:33:43;8.20;;;6.90;;
11453;SDS011;5783;55.174;61.310;2022-12-18T05:36:13;9.10;;;6.70;;
11453;SDS011;5783;55.174;61.310;2022-12-18T05:38:42;8.80;;;7.07;;
11453;SDS011;5783;55.174;61.310;2022-12-18T05:41:11;8.97;;;6.80;;
11453;SDS011;5783;55.174;61.310;2022-12-18T05:43:40;9.63;;;7.13;;
11453;SDS011;5783;55.174;61.310;2022-12-18T05:51:46;9.60;;;7.13;;
11453;SDS011;5783;55.174;61.310;2022-12-18T05:54:16;9.33;;;6.83;;
11453;SDS011;5783;55.174;61.310;2022-12-18T05:56:44;9.47;;;7.17;;
11453;SDS011;5783;55.174;61.310;2022-12-18T05:59:14;8.80;;;7.20;;
11453;SDS011;5783;55.174;61.310;2022-12-18T06:01:43;10.17;;;7.60;;
11453;SDS011;5783;55.174;61.310;2022-12-18T06:04:12;8.40;;;7.30;;
11453;SDS011;5783;55.174;61.310;2022-12-18T06:06:41;9.30;;;7.30;;
11453;SDS011;5783;55.174;61.310;2022-12-18T06:09:10;8.80;;;7.53;;
11453;SDS011;5783;55.174;61.310;2022-12-18T06:11:40;8.70;;;6.67;;
11453;SDS011;5783;55.174;61.310;2022-12-18T06:14:09;10.80;;;6.90;;
11453;SDS011;5783;55.174;61.310;2022-12-18T06:16:39;8.57;;;6.97;;
11453;SDS011;5783;55.174;61.310;2022-12-18T06:19:12;8.80;;;7.17;;
11453;SDS011;5783;55.174;61.310;2022-12-18T06:21:40;8.67;;;6.83;;
11453;SDS011;5783;55.174;61.310;2022-12-18T06:24:09;8.93;;;7.47;;
11453;SDS011;5783;55.174;61.310;2022-12-18T06:26:38;9.23;;;7.03;;
11453;SDS011;5783;55.174;61.310;2022-12-18T06:29:08;9.93;;;6.70;;
11453;SDS011;5783;55.174;61.310;2022-12-18T06:31:37;8.50;;;7.10;;
11453;SDS011;5783;55.174;61.310;2022-12-18T06:34:06;9.03;;;7.30;;
11453;SDS011;5783;55.174;61.310;2022-12-18T06:36:35;8.50;;;6.90;;
11453;SDS011;5783;55.174;61.310;2022-12-18T06:39:04;8.73;;;7.27;;
11453;SDS011;5783;55.174;61.310;2022-12-18T06:41:33;11.00;;;7.50;;
11453;SDS011;5783;55.174;61.310;2022-12-18T06:44:02;8.67;;;6.93;;
11453;SDS011;5783;55.174;61.310;2022-12-18T06:46:32;8.70;;;7.40;;
11453;SDS011;5783;55.174;61.310;2022-12-18T06:49:01;9.00;;;7.40;;
11453;SDS011;5783;55.174;61.310;2022-12-18T06:51:50;9.10;;;7.57;;
11453;SDS011;5783;55.174;61.310;2022-12-18T06:54:19;11.47;;;7.60;;
11453;SDS011;5783;55.174;61.310;2022-12-18T06:56:48;11.57;;;7.70;;
11453;SDS011;5783;55.174;61.310;2022-12-18T06:59:17;9.40;;;7.43;;
11453;SDS011;5783;55.174;61.310;2022-12-18T07:01:46;9.07;;;7.50;;
11453;SDS011;5783;55.174;61.310;2022-12-18T07:04:15;8.70;;;7.73;;
11453;SDS011;5783;55.174;61.310;2022-12-18T07:06:44;10.07;;;7.60;;
11453;SDS011;5783;55.174;61.310;2022-12-18T07:09:14;9.37;;;7.47;;
11453;SDS011;5783;55.174;61.310;2022-12-18T07:11:43;9.67;;;7.57;;
11453;SDS011;5783;55.174;61.310;2022-12-18T07:14:12;10.57;;;7.20;;
11453;SDS011;5783;55.174;61.310;2022-12-18T07:16:41;10.13;;;7.90;;
11453;SDS011;5783;55.174;61.310;2022-12-18T07:19:10;8.97;;;7.63;;
11453;SDS011;5783;55.174;61.310;2022-12-18T07:21:39;11.10;;;7.90;;
11453;SDS011;5783;55.174;61.310;2022-12-18T07:24:09;8.93;;;7.60;;
11453;SDS011;5783;55.174;61.310;2022-12-18T07:26:38;13.53;;;7.97;;
11453;SDS011;5783;55.174;61.310;2022-12-18T07:29:07;11.40;;;8.33;;
11453;SDS011;5783;55.174;61.310;2022-12-18T07:31:36;10.20;;;8.10;;
11453;SDS011;5783;55.174;61.310;2022-12-18T07:34:09;10.47;;;7.90;;
11453;SDS011;5783;55.174;61.310;2022-12-18T07:36:56;10.20;;;8.60;;
11453;SDS011;5783;55.174;61.310;2022-12-18T07:39:25;13.10;;;9.20;;
11453;SDS011;5783;55.174;61.310;2022-12-18T07:41:54;12.60;;;9.70;;
11453;SDS011;5783;55.174;61.310;2022-12-18T07:44:42;12.67;;;9.70;;
11453;SDS011;5783;55.174;61.310;2022-12-18T07:47:12;12.07;;;9.03;;
11453;SDS011;5783;55.174;61.310;2022-12-18T07:49:41;11.17;;;9.37;;
11453;SDS011;5783;55.174;61.310;2022-12-18T07:52:10;10.97;;;9.27;;
11453;SDS011;5783;55.174;61.310;2022-12-18T07:54:39;12.67;;;8.93;;
11453;SDS011;5783;55.174;61.310;2022-12-18T07:57:09;13.07;;;8.90;;
11453;SDS011;5783;55.174;61.310;2022-12-18T07:59:37;11.83;;;9.37;;
11453;SDS011;5783;55.174;61.310;2022-12-18T08:02:06;11.43;;;9.33;;
11453;SDS011;5783;55.174;61.310;2022-12-18T08:04:35;11.13;;;9.23;;
11453;SDS011;5783;55.174;61.310;2022-12-18T08:07:04;12.07;;;9.50;;
11453;SDS011;5783;55.174;61.310;2022-12-18T08:09:34;13.23;;;9.80;;
11453;SDS011;5783;55.174;61.310;2022-12-18T08:12:03;13.23;;;10.27;;
11453;SDS011;5783;55.174;61.310;2022-12-18T08:14:32;13.00;;;10.20;;
11453;SDS011;5783;55.174;61.310;2022-12-18T08:17:01;16.03;;;11.87;;
11453;SDS011;5783;55.174;61.310;2022-12-18T08:19:30;15.60;;;10.97;;
11453;SDS011;5783;55.174;61.310;2022-12-18T08:22:00;13.63;;;10.77;;
11453;SDS011;5783;55.174;61.310;2022-12-18T08:24:29;13.10;;;10.47;;
11453;SDS011;5783;55.174;61.310;2022-12-18T08:26:58;14.37;;;11.43;;
11453;SDS011;5783;55.174;61.310;2022-12-18T08:29:27;13.53;;;10.83;;
11453;SDS011;5783;55.174;61.310;2022-12-18T08:31:57;12.23;;;10.20;;
11453;SDS011;5783;55.174;61.310;2022-12-18T08:34:26;12.23;;;10.20;;
11453;SDS011;5783;55.174;61.310;2022-12-18T08:36:55;14.77;;;10.87;;
11453;SDS011;5783;55.174;61.310;2022-12-18T08:39:25;12.57;;;9.93;;
11453;SDS011;5783;55.174;61.310;2022-12-18T08:41:54;14.07;;;10.63;;
11453;SDS011;5783;55.174;61.310;2022-12-18T08:44:42;13.53;;;10.07;;
11453;SDS011;5783;55.174;61.310;2022-12-18T08:47:12;13.83;;;10.37;;
11453;SDS011;5783;55.174;61.310;2022-12-18T08:49:41;12.50;;;10.23;;
11453;SDS011;5783;55.174;61.310;2022-12-18T08:52:10;14.43;;;11.10;;
11453;SDS011;5783;55.174;61.310;2022-12-18T08:54:39;12.87;;;10.23;;
11453;SDS011;5783;55.174;61.310;2022-12-18T08:57:08;13.27;;;10.47;;
11453;SDS011;5783;55.174;61.310;2022-12-18T08:59:37;11.80;;;9.60;;
11453;SDS011;5783;55.174;61.310;2022-12-18T09:02:08;15.00;;;11.17;;
11453;SDS011;5783;55.174;61.310;2022-12-18T09:04:56;13.07;;;9.90;;
11453;SDS011;5783;55.174;61.310;2022-12-18T09:07:26;12.50;;;10.50;;
11453;SDS011;5783;55.174;61.310;2022-12-18T09:09:55;11.80;;;9.67;;
11453;SDS011;5783;55.174;61.310;2022-12-18T09:12:24;11.30;;;8.97;;
11453;SDS011;5783;55.174;61.310;2022-12-18T09:14:54;12.20;;;9.43;;
11453;SDS011;5783;55.174;61.310;2022-12-18T09:17:23;13.07;;;10.30;;
11453;SDS011;5783;55.174;61.310;2022-12-18T09:19:52;14.13;;;9.63;;
11453;SDS011;5783;55.174;61.310;2022-12-18T09:22:21;14.33;;;10.10;;
11453;SDS011;5783;55.174;61.310;2022-12-18T09:24:50;13.40;;;10.53;;
11453;SDS011;5783;55.174;61.310;2022-12-18T09:27:19;13.37;;;9.93;;
11453;SDS011;5783;55.174;61.310;2022-12-18T09:29:48;13.10;;;10.10;;
11453;SDS011;5783;55.174;61.310;2022-12-18T09:32:18;13.10;;;9.60;;
11453;SDS011;5783;55.174;61.310;2022-12-18T09:34:47;11.23;;;9.53;;
11453;SDS011;5783;55.174;61.310;2022-12-18T09:37:16;12.43;;;9.67;;
11453;SDS011;5783;55.174;61.310;2022-12-18T09:39:45;12.60;;;9.93;;
11453;SDS011;5783;55.174;61.310;2022-12-18T09:45:03;12.17;;;9.60;;
11453;SDS011;5783;55.174;61.310;2022-12-18T09:52:56;11.87;;;9.67;;
11453;SDS011;5783;55.174;61.310;2022-12-18T10:01:24;11.83;;;8.60;;
11453;SDS011;5783;55.174;61.310;2022-12-18T10:03:56;11.37;;;8.80;;
11453;SDS011;5783;55.174;61.310;2022-12-18T10:09:36;15.37;;;9.80;;
11453;SDS011;5783;55.174;61.310;2022-12-18T10:12:25;10.47;;;8.97;;
11453;SDS011;5783;55.174;61.310;2022-12-18T10:15:15;11.60;;;9.33;;
11453;SDS011;5783;55.174;61.310;2022-12-18T10:26:34;13.17;;;10.67;;
11453;SDS011;5783;55.174;61.310;2022-12-18T10:29:08;13.83;;;10.60;;
11453;SDS011;5783;55.174;61.310;2022-12-18T10:31:54;14.00;;;10.63;;
11453;SDS011;5783;55.174;61.310;2022-12-18T10:34:23;13.97;;;10.70;;
11453;SDS011;5783;55.174;61.310;2022-12-18T10:36:52;12.80;;;10.13;;
11453;SDS011;5783;55.174;61.310;2022-12-18T10:39:43;13.80;;;11.00;;
11453;SDS011;5783;55.174;61.310;2022-12-18T10:47:50;13.90;;;11.20;;
11453;SDS011;5783;55.174;61.310;2022-12-18T10:53:13;13.27;;;10.53;;
11453;SDS011;5783;55.174;61.310;2022-12-18T10:55:43;14.43;;;11.63;;
11453;SDS011;5783;55.174;61.310;2022-12-18T10:58:46;14.00;;;10.93;;
11453;SDS011;5783;55.174;61.310;2022-12-18T11:06:27;15.40;;;11.70;;
11453;SDS011;5783;55.174;61.310;2022-12-18T11:08:58;15.07;;;11.27;;
11453;SDS011;5783;55.174;61.310;2022-12-18T11:14:55;14.07;;;11.13;;
11453;SDS011;5783;55.174;61.310;2022-12-18T11:23:05;13.67;;;10.93;;
11453;SDS011;5783;55.174;61.310;2022-12-18T11:25:36;15.73;;;11.93;;
11453;SDS011;5783;55.174;61.310;2022-12-18T11:28:25;17.20;;;12.87;;
11453;SDS011;5783;55.174;61.310;2022-12-18T11:36:18;16.83;;;13.50;;
11453;SDS011;5783;55.174;61.310;2022-12-18T11:38:49;17.90;;;14.37;;
11453;SDS011;5783;55.174;61.310;2022-12-18T11:53:37;17.53;;;13.10;;
11453;SDS011;5783;55.174;61.310;2022-12-18T12:26:01;14.53;;;11.50;;
11453;SDS011;5783;55.174;61.310;2022-12-18T12:40:29;15.80;;;11.07;;
11453;SDS011;5783;55.174;61.310;2022-12-18T12:43:02;13.43;;;9.87;;
11453;SDS011;5783;55.174;61.310;2022-12-18T12:54:09;12.07;;;7.97;;
11453;SDS011;5783;55.174;61.310;2022-12-18T13:08:51;11.67;;;6.60;;
11453;SDS011;5783;55.174;61.310;2022-12-18T13:14:34;9.43;;;7.10;;
11453;SDS011;5783;55.174;61.310;2022-12-18T13:30:56;8.43;;;6.30;;
11453;SDS011;5783;55.174;61.310;2022-12-18T13:51:05;9.57;;;6.53;;
11453;SDS011;5783;55.174;61.310;2022-12-18T13:53:38;8.83;;;6.17;;
11453;SDS011;5783;55.174;61.310;2022-12-18T13:56:09;7.73;;;6.30;;
11453;SDS011;5783;55.174;61.310;2022-12-18T13:58:39;7.57;;;5.63;;
11453;SDS011;5783;55.174;61.310;2022-12-18T14:07:13;8.30;;;6.13;;
11453;SDS011;5783;55.174;61.310;2022-12-18T14:10:21;8.60;;;5.83;;
11453;SDS011;5783;55.174;61.310;2022-12-18T14:12:51;9.07;;;6.60;;
11453;SDS011;5783;55.174;61.310;2022-12-18T14:15:41;9.77;;;6.27;;
11453;SDS011;5783;55.174;61.310;2022-12-18T14:21:02;10.07;;;6.30;;
11453;SDS011;5783;55.174;61.310;2022-12-18T14:26:40;11.40;;;6.70;;
11453;SDS011;5783;55.174;61.310;2022-12-18T14:34:49;7.97;;;5.93;;
11453;SDS011;5783;55.174;61.310;2022-12-18T14:37:21;9.47;;;5.97;;
11453;SDS011;5783;55.174;61.310;2022-12-18T14:40:27;9.83;;;6.47;;
11453;SDS011;5783;55.174;61.310;2022-12-18T14:42:25;10.00;;;6.63;;
11453;SDS011;5783;55.174;61.310;2022-12-18T14:47:43;9.47;;;6.90;;
11453;SDS011;5783;55.174;61.310;2022-12-18T14:50:13;8.87;;;6.70;;
11453;SDS011;5783;55.174;61.310;2022-12-18T14:52:42;8.87;;;6.20;;
11453;SDS011;5783;55.174;61.310;2022-12-18T14:58:00;7.87;;;6.03;;
11453;SDS011;5783;55.174;61.310;2022-12-18T15:00:30;7.70;;;5.93;;
11453;SDS011;5783;55.174;61.310;2022-12-18T15:02:59;9.27;;;6.03;;
11453;SDS011;5783;55.174;61.310;2022-12-18T15:05:29;10.23;;;5.80;;
11453;SDS011;5783;55.174;61.310;2022-12-18T15:07:59;6.40;;;4.90;;
11453;SDS011;5783;55.174;61.310;2022-12-18T15:10:30;7.20;;;4.67;;
11453;SDS011;5783;55.174;61.310;2022-12-18T15:26:20;6.27;;;4.53;;
11453;SDS011;5783;55.174;61.310;2022-12-18T15:31:58;5.60;;;4.43;;
11453;SDS011;5783;55.174;61.310;2022-12-18T15:34:30;6.17;;;4.50;;
11453;SDS011;5783;55.174;61.310;2022-12-18T15:37:00;6.83;;;4.67;;
11453;SDS011;5783;55.174;61.310;2022-12-18T15:39:29;6.20;;;4.50;;
11453;SDS011;5783;55.174;61.310;2022-12-18T15:42:00;6.10;;;4.67;;
11453;SDS011;5783;55.174;61.310;2022-12-18T15:44:49;5.17;;;4.37;;
11453;SDS011;5783;55.174;61.310;2022-12-18T15:49:51;5.80;;;4.43;;
11453;SDS011;5783;55.174;61.310;2022-12-18T15:52:20;6.33;;;4.50;;
11453;SDS011;5783;55.174;61.310;2022-12-18T15:54:51;5.93;;;4.30;;
11453;SDS011;5783;55.174;61.310;2022-12-18T15:57:40;4.90;;;4.30;;
11453;SDS011;5783;55.174;61.310;2022-12-18T16:00:11;6.73;;;4.47;;
11453;SDS011;5783;55.174;61.310;2022-12-18T16:02:40;4.70;;;3.80;;
11453;SDS011;5783;55.174;61.310;2022-12-18T16:05:13;5.30;;;4.00;;
11453;SDS011;5783;55.174;61.310;2022-12-18T16:07:43;6.27;;;4.40;;
11453;SDS011;5783;55.174;61.310;2022-12-18T16:10:12;5.07;;;3.90;;
11453;SDS011;5783;55.174;61.310;2022-12-18T16:12:42;5.93;;;4.53;;
11453;SDS011;5783;55.174;61.310;2022-12-18T16:18:00;4.37;;;3.90;;
11453;SDS011;5783;55.174;61.310;2022-12-18T16:20:29;5.70;;;4.50;;
11453;SDS011;5783;55.174;61.310;2022-12-18T16:22:58;5.57;;;4.50;;
11453;SDS011;5783;55.174;61.310;2022-12-18T16:25:28;4.87;;;4.03;;
11453;SDS011;5783;55.174;61.310;2022-12-18T16:27:57;4.90;;;3.67;;
11453;SDS011;5783;55.174;61.310;2022-12-18T16:30:28;4.83;;;4.17;;
11453;SDS011;5783;55.174;61.310;2022-12-18T16:32:58;5.00;;;4.20;;
11453;SDS011;5783;55.174;61.310;2022-12-18T16:35:27;4.53;;;3.93;;
11453;SDS011;5783;55.174;61.310;2022-12-18T16:37:56;5.17;;;4.37;;
11453;SDS011;5783;55.174;61.310;2022-12-18T16:40:26;5.60;;;4.20;;
11453;SDS011;5783;55.174;61.310;2022-12-18T16:42:55;6.37;;;4.40;;
11453;SDS011;5783;55.174;61.310;2022-12-18T16:45:24;5.93;;;4.30;;
11453;SDS011;5783;55.174;61.310;2022-12-18T16:47:55;5.03;;;4.07;;
11453;SDS011;5783;55.174;61.310;2022-12-18T16:50:24;5.27;;;4.10;;
11453;SDS011;5783;55.174;61.310;2022-12-18T16:52:53;5.93;;;4.17;;
11453;SDS011;5783;55.174;61.310;2022-12-18T16:55:22;6.07;;;4.33;;
11453;SDS011;5783;55.174;61.310;2022-12-18T16:57:51;4.27;;;3.80;;
11453;SDS011;5783;55.174;61.310;2022-12-18T17:00:20;5.20;;;4.20;;
11453;SDS011;5783;55.174;61.310;2022-12-18T17:02:49;4.77;;;3.97;;
11453;SDS011;5783;55.174;61.310;2022-12-18T17:05:19;4.77;;;4.20;;
11453;SDS011;5783;55.174;61.310;2022-12-18T17:07:48;4.63;;;4.13;;
11453;SDS011;5783;55.174;61.310;2022-12-18T17:10:17;4.63;;;4.07;;
11453;SDS011;5783;55.174;61.310;2022-12-18T17:12:46;5.00;;;4.37;;
11453;SDS011;5783;55.174;61.310;2022-12-18T17:15:18;5.47;;;4.43;;
11453;SDS011;5783;55.174;61.310;2022-12-18T17:17:47;4.60;;;3.80;;
11453;SDS011;5783;55.174;61.310;2022-12-18T17:20:16;5.40;;;4.63;;
11453;SDS011;5783;55.174;61.310;2022-12-18T17:22:45;4.73;;;4.03;;
11453;SDS011;5783;55.174;61.310;2022-12-18T17:25:15;6.10;;;4.40;;
11453;SDS011;5783;55.174;61.310;2022-12-18T17:27:44;4.43;;;4.00;;
11453;SDS011;5783;55.174;61.310;2022-12-18T17:30:13;5.67;;;4.30;;
11453;SDS011;5783;55.174;61.310;2022-12-18T17:32:42;4.83;;;4.13;;
11453;SDS011;5783;55.174;61.310;2022-12-18T17:35:11;5.37;;;4.17;;
11453;SDS011;5783;55.174;61.310;2022-12-18T17:37:40;5.77;;;4.40;;
11453;SDS011;5783;55.174;61.310;2022-12-18T17:40:11;4.83;;;4.17;;
11453;SDS011;5783;55.174;61.310;2022-12-18T17:42:40;5.10;;;4.27;;
11453;SDS011;5783;55.174;61.310;2022-12-18T17:45:09;5.10;;;4.20;;
11453;SDS011;5783;55.174;61.310;2022-12-18T17:47:38;5.93;;;4.50;;
11453;SDS011;5783;55.174;61.310;2022-12-18T17:50:07;4.97;;;4.10;;
11453;SDS011;5783;55.174;61.310;2022-12-18T17:55:29;5.77;;;4.40;;
11453;SDS011;5783;55.174;61.310;2022-12-18T17:57:58;4.50;;;4.07;;
11453;SDS011;5783;55.174;61.310;2022-12-18T18:00:27;4.30;;;3.80;;
11453;SDS011;5783;55.174;61.310;2022-12-18T18:02:57;4.57;;;4.03;;
11453;SDS011;5783;55.174;61.310;2022-12-18T18:05:26;5.17;;;4.23;;
11453;SDS011;5783;55.174;61.310;2022-12-18T18:07:55;4.30;;;3.87;;
11453;SDS011;5783;55.174;61.310;2022-12-18T18:10:24;4.77;;;4.20;;
11453;SDS011;5783;55.174;61.310;2022-12-18T18:12:54;4.50;;;4.07;;
11453;SDS011;5783;55.174;61.310;2022-12-18T18:15:42;4.67;;;4.00;;
11453;SDS011;5783;55.174;61.310;2022-12-18T18:18:11;4.67;;;4.17;;
11453;SDS011;5783;55.174;61.310;2022-12-18T18:20:40;4.87;;;4.30;;
11453;SDS011;5783;55.174;61.310;2022-12-18T18:23:10;5.17;;;3.83;;
11453;SDS011;5783;55.174;61.310;2022-12-18T18:25:39;4.37;;;3.97;;
11453;SDS011;5783;55.174;61.310;2022-12-18T18:28:08;4.50;;;4.00;;
11453;SDS011;5783;55.174;61.310;2022-12-18T18:30:37;4.90;;;4.00;;
11453;SDS011;5783;55.174;61.310;2022-12-18T18:33:06;5.20;;;4.00;;
11453;SDS011;5783;55.174;61.310;2022-12-18T18:35:40;4.37;;;3.97;;
11453;SDS011;5783;55.174;61.310;2022-12-18T18:38:08;4.40;;;3.63;;
11453;SDS011;5783;55.174;61.310;2022-12-18T18:40:38;4.77;;;3.80;;
11453;SDS011;5783;55.174;61.310;2022-12-18T18:45:56;4.77;;;3.80;;
11453;SDS011;5783;55.174;61.310;2022-12-18T18:48:27;4.37;;;3.40;;
11453;SDS011;5783;55.174;61.310;2022-12-18T18:51:36;5.43;;;3.47;;
11453;SDS011;5783;55.174;61.310;2022-12-18T18:54:05;4.27;;;3.70;;
11453;SDS011;5783;55.174;61.310;2022-12-18T18:56:35;4.33;;;3.83;;
11453;SDS011;5783;55.174;61.310;2022-12-18T18:59:04;4.93;;;4.00;;
11453;SDS011;5783;55.174;61.310;2022-12-18T19:01:33;4.00;;;3.60;;
11453;SDS011;5783;55.174;61.310;2022-12-18T19:04:23;4.13;;;3.73;;
11453;SDS011;5783;55.174;61.310;2022-12-18T19:06:52;4.27;;;3.70;;
11453;SDS011;5783;55.174;61.310;2022-12-18T19:09:40;4.83;;;3.50;;
11453;SDS011;5783;55.174;61.310;2022-12-18T19:12:12;3.73;;;3.23;;
11453;SDS011;5783;55.174;61.310;2022-12-18T19:15:02;4.17;;;3.53;;
11453;SDS011;5783;55.174;61.310;2022-12-18T19:17:32;3.70;;;3.30;;
11453;SDS011;5783;55.174;61.310;2022-12-18T19:20:03;4.17;;;3.40;;
11453;SDS011;5783;55.174;61.310;2022-12-18T19:22:32;3.70;;;3.13;;
11453;SDS011;5783;55.174;61.310;2022-12-18T19:25:01;5.10;;;4.07;;
11453;SDS011;5783;55.174;61.310;2022-12-18T19:27:31;3.80;;;3.30;;
11453;SDS011;5783;55.174;61.310;2022-12-18T19:30:02;4.60;;;3.87;;
11453;SDS011;5783;55.174;61.310;2022-12-18T19:32:52;3.93;;;3.40;;
11453;SDS011;5783;55.174;61.310;2022-12-18T19:35:23;5.27;;;3.47;;
11453;SDS011;5783;55.174;61.310;2022-12-18T19:40:25;4.13;;;3.27;;
11453;SDS011;5783;55.174;61.310;2022-12-18T19:43:13;3.70;;;3.30;;
11453;SDS011;5783;55.174;61.310;2022-12-18T19:45:42;3.70;;;3.30;;
11453;SDS011;5783;55.174;61.310;2022-12-18T19:48:14;4.47;;;3.40;;
11453;SDS011;5783;55.174;61.310;2022-12-18T19:53:15;3.50;;;3.20;;
11453;SDS011;5783;55.174;61.310;2022-12-18T19:55:45;4.00;;;3.60;;